Time;durP1;ratioP1;P1;durP2;ratioP2;P2;SDS_P1;SDS_P2;PMS_P1;PMS_P2;Temp;Humidity;BMP_temperature;BMP_pressure;BME280_temperature;BME280_humidity;BME280_pressure;Samples;Min_cycle;Max_cycle;Signal;HPM_P1;HPM_P2
2022/04/09 00:01:53;;;;;;;1.88;0.70;;;12.30;79.60;;;;;;5018683;28;20046;-75
2022/04/09 00:04:21;;;;;;;2.03;0.88;;;12.30;79.50;;;;;;5017629;28;20113;-73
2022/04/09 00:06:48;;;;;;;2.30;0.70;;;12.30;79.50;;;;;;5018901;28;20037;-76
2022/04/09 00:09:15;;;;;;;3.00;0.80;;;12.30;79.50;;;;;;5013891;28;20042;-75
2022/04/09 00:11:42;;;;;;;1.60;0.50;;;12.30;79.60;;;;;;5015333;28;20427;-77
2022/04/09 00:14:09;;;;;;;2.97;0.90;;;12.30;79.60;;;;;;5014708;28;20081;-74
2022/04/09 00:16:35;;;;;;;2.83;0.70;;;12.40;79.70;;;;;;4996226;28;20558;-76
2022/04/09 00:19:02;;;;;;;2.25;0.65;;;12.30;79.60;;;;;;5018544;28;20718;-77
2022/04/09 00:21:32;;;;;;;2.38;0.77;;;12.30;79.70;;;;;;5016184;28;20488;-75
2022/04/09 00:23:59;;;;;;;2.33;0.88;;;12.30;79.60;;;;;;5018884;28;20077;-77
2022/04/09 00:26:26;;;;;;;2.15;0.73;;;12.30;79.60;;;;;;5014793;28;20056;-75
2022/04/09 00:28:53;;;;;;;1.85;0.70;;;12.30;79.60;;;;;;5012063;28;20125;-75
2022/04/09 00:31:20;;;;;;;2.60;0.80;;;12.30;79.60;;;;;;5015954;28;20048;-76
2022/04/09 00:33:47;;;;;;;2.58;0.80;;;12.30;79.60;;;;;;5026625;28;20072;-75
2022/04/09 00:36:14;;;;;;;2.67;0.70;;;12.30;79.60;;;;;;5015059;28;20050;-75
2022/04/09 00:38:42;;;;;;;3.10;0.80;;;12.30;79.60;;;;;;5018036;28;20095;-74
2022/04/09 00:41:10;;;;;;;3.70;0.85;;;12.30;79.60;;;;;;5013388;28;20048;-75
2022/04/09 00:43:39;;;;;;;1.90;0.80;;;12.30;79.60;;;;;;5012717;28;20073;-75
2022/04/09 00:46:06;;;;;;;2.50;0.88;;;12.30;79.60;;;;;;5017515;28;20056;-75
2022/04/09 00:48:34;;;;;;;2.08;0.85;;;12.30;79.60;;;;;;5012996;28;20048;-75
2022/04/09 00:51:01;;;;;;;1.85;0.70;;;12.30;79.50;;;;;;5014397;28;20045;-76
2022/04/09 00:53:31;;;;;;;1.92;0.60;;;12.30;79.60;;;;;;4998676;28;20132;-76
2022/04/09 00:56:21;;;;;;;2.47;0.60;;;12.30;79.60;;;;;;5019413;28;20059;-76
2022/04/09 00:58:55;;;;;;;2.28;0.73;;;12.30;79.60;;;;;;5018932;28;20049;-75
2022/04/09 01:01:23;;;;;;;1.85;0.70;;;12.30;79.60;;;;;;5013402;28;20133;-77
2022/04/09 01:03:51;;;;;;;2.05;0.80;;;12.30;79.60;;;;;;5015029;28;20544;-75
2022/04/09 01:06:18;;;;;;;2.90;0.70;;;12.30;79.60;;;;;;5015370;28;20041;-76
2022/04/09 01:08:45;;;;;;;4.50;0.73;;;12.30;79.60;;;;;;5015233;28;20546;-77
2022/04/09 01:11:14;;;;;;;3.13;1.05;;;12.30;79.60;;;;;;4998432;28;20076;-77
2022/04/09 01:13:41;;;;;;;1.75;0.50;;;12.30;79.50;;;;;;5014189;28;20033;-75
2022/04/09 01:16:09;;;;;;;2.67;0.85;;;12.30;79.50;;;;;;4996037;28;20041;-75
2022/04/09 01:18:37;;;;;;;2.65;0.90;;;12.30;79.50;;;;;;5018565;28;20055;-74
2022/04/09 01:21:05;;;;;;;2.60;0.82;;;12.20;79.40;;;;;;5015506;28;20360;-77
2022/04/09 01:23:33;;;;;;;2.72;0.80;;;12.20;79.40;;;;;;5018510;28;20476;-78
2022/04/09 01:26:01;;;;;;;2.67;0.88;;;12.30;79.50;;;;;;5018180;28;20047;-74
2022/04/09 01:28:28;;;;;;;3.50;0.85;;;12.20;79.40;;;;;;5018110;28;20046;-75
2022/04/09 01:30:56;;;;;;;2.75;0.80;;;12.20;79.40;;;;;;5019988;28;20057;-76
2022/04/09 01:33:23;;;;;;;3.28;0.85;;;12.20;79.30;;;;;;5013450;28;20055;-76
2022/04/09 01:35:51;;;;;;;2.35;0.80;;;12.20;79.40;;;;;;5021931;28;20057;-75
2022/04/09 01:38:18;;;;;;;1.85;0.85;;;12.20;79.40;;;;;;5015907;28;20104;-78
2022/04/09 01:40:46;;;;;;;3.10;0.80;;;12.30;79.50;;;;;;5022368;28;20050;-77
2022/04/09 01:43:13;;;;;;;3.03;0.77;;;12.20;79.30;;;;;;5021051;28;20131;-76
2022/04/09 01:45:40;;;;;;;1.92;0.80;;;12.20;79.30;;;;;;5029080;28;20089;-75
2022/04/09 01:48:07;;;;;;;2.17;0.77;;;12.20;79.30;;;;;;5030781;28;20298;-74
2022/04/09 01:50:35;;;;;;;2.38;0.82;;;12.20;79.20;;;;;;5004968;28;20491;-77
2022/04/09 01:53:02;;;;;;;1.98;0.70;;;12.20;79.30;;;;;;5014294;28;20042;-77
2022/04/09 01:55:28;;;;;;;2.63;0.80;;;12.20;79.30;;;;;;5017670;28;20042;-76
2022/04/09 01:57:57;;;;;;;2.83;0.77;;;12.20;79.30;;;;;;5020821;28;20052;-77
2022/04/09 02:00:24;;;;;;;2.70;0.70;;;12.20;79.30;;;;;;5003350;28;20473;-73
2022/04/09 02:02:51;;;;;;;3.33;0.88;;;12.20;79.20;;;;;;5013945;28;20045;-74
2022/04/09 02:05:19;;;;;;;1.88;0.68;;;12.20;79.30;;;;;;5018506;28;20041;-75
2022/04/09 02:07:47;;;;;;;2.75;0.52;;;12.20;79.20;;;;;;4996055;28;20046;-76
2022/04/09 02:10:15;;;;;;;3.88;0.98;;;12.20;79.20;;;;;;5009817;28;20442;-77
2022/04/09 02:12:43;;;;;;;3.55;0.90;;;12.20;79.20;;;;;;5021430;28;20051;-75
2022/04/09 02:15:13;;;;;;;3.25;1.00;;;12.20;79.20;;;;;;5016723;28;20060;-75
2022/04/09 02:17:41;;;;;;;2.85;0.85;;;12.20;79.20;;;;;;5026513;28;20406;-74
2022/04/09 02:20:09;;;;;;;3.13;1.00;;;12.20;79.20;;;;;;5033955;28;20047;-77
2022/04/09 02:22:37;;;;;;;4.03;1.00;;;12.20;79.20;;;;;;5028182;28;20048;-75
2022/04/09 02:25:04;;;;;;;2.42;0.70;;;12.20;79.20;;;;;;5017343;28;20057;-74
2022/04/09 02:27:35;;;;;;;2.83;0.82;;;12.20;79.20;;;;;;5017430;28;20049;-75
2022/04/09 02:30:01;;;;;;;2.60;0.73;;;12.20;79.20;;;;;;5024474;28;20049;-77
2022/04/09 02:32:30;;;;;;;3.42;1.10;;;12.20;79.20;;;;;;5019808;28;20074;-77
2022/04/09 02:34:57;;;;;;;3.33;1.10;;;12.20;79.10;;;;;;5011993;28;20066;-74
2022/04/09 02:37:24;;;;;;;3.10;1.00;;;12.20;79.10;;;;;;5016729;28;20137;-76
2022/04/09 02:39:50;;;;;;;2.58;0.90;;;12.20;79.20;;;;;;5015645;28;20049;-76
2022/04/09 02:42:18;;;;;;;2.88;0.82;;;12.20;79.10;;;;;;5010593;28;20053;-77
2022/04/09 02:44:45;;;;;;;3.72;1.20;;;12.20;79.10;;;;;;5021728;28;20073;-76
2022/04/09 02:47:12;;;;;;;3.30;1.00;;;12.20;79.10;;;;;;5020402;28;20056;-75
2022/04/09 02:49:40;;;;;;;3.08;0.93;;;12.10;79.00;;;;;;5019209;28;20051;-76
2022/04/09 02:52:07;;;;;;;2.75;1.00;;;12.10;79.20;;;;;;5023584;28;20043;-75
2022/04/09 02:54:34;;;;;;;4.07;1.25;;;12.20;79.00;;;;;;5018000;28;20042;-76
2022/04/09 02:57:02;;;;;;;2.80;0.93;;;12.20;79.00;;;;;;5018146;28;20053;-75
2022/04/09 02:59:29;;;;;;;2.80;0.80;;;12.20;79.00;;;;;;5014024;28;20403;-74
2022/04/09 03:01:55;;;;;;;3.78;1.02;;;12.10;79.70;;;;;;5016567;28;20042;-75
2022/04/09 03:04:22;;;;;;;3.15;0.98;;;12.10;78.90;;;;;;5024858;28;20041;-75
2022/04/09 03:06:50;;;;;;;2.45;0.90;;;12.10;78.90;;;;;;5001511;28;20049;-75
2022/04/09 03:09:17;;;;;;;3.47;0.75;;;12.10;78.90;;;;;;4999594;28;20136;-75
2022/04/09 03:11:44;;;;;;;3.80;1.23;;;12.10;78.80;;;;;;5015059;28;20128;-76
2022/04/09 03:14:11;;;;;;;2.08;0.60;;;12.10;79.60;;;;;;5018147;28;20284;-75
2022/04/09 03:16:37;;;;;;;3.83;0.82;;;12.10;78.80;;;;;;5020788;28;20048;-75
2022/04/09 03:19:04;;;;;;;3.70;0.93;;;12.10;78.80;;;;;;5002022;28;20124;-76
2022/04/09 03:21:31;;;;;;;2.65;1.00;;;12.10;78.90;;;;;;5020064;28;20049;-78
2022/04/09 03:24:05;;;;;;;3.13;1.10;;;12.10;78.90;;;;;;5018123;28;20037;-74
2022/04/09 03:26:32;;;;;;;3.15;1.00;;;12.20;78.80;;;;;;4996871;28;20053;-76
2022/04/09 03:28:59;;;;;;;2.72;1.00;;;12.10;78.70;;;;;;5012579;28;20044;-74
2022/04/09 03:31:26;;;;;;;2.15;0.88;;;12.10;78.80;;;;;;5000698;28;20049;-75
2022/04/09 03:33:53;;;;;;;2.85;0.90;;;12.10;78.70;;;;;;4997351;28;20124;-76
2022/04/09 03:36:20;;;;;;;2.78;0.90;;;12.10;78.70;;;;;;5016103;28;20068;-75
2022/04/09 03:38:47;;;;;;;2.50;0.80;;;12.10;78.60;;;;;;5013414;28;20127;-75
2022/04/09 03:41:15;;;;;;;3.88;0.80;;;12.10;78.70;;;;;;5022148;28;20132;-77
2022/04/09 03:43:42;;;;;;;4.68;1.10;;;12.10;78.70;;;;;;5029933;28;20037;-76
2022/04/09 03:46:09;;;;;;;3.72;1.10;;;12.10;78.60;;;;;;5020330;28;20042;-76
2022/04/09 03:48:36;;;;;;;2.20;1.05;;;12.10;78.60;;;;;;5014888;28;20046;-76
2022/04/09 03:51:03;;;;;;;2.95;0.90;;;12.10;78.60;;;;;;5017855;28;20092;-74
2022/04/09 03:53:30;;;;;;;4.03;0.90;;;12.10;78.60;;;;;;5016945;28;20050;-75
2022/04/09 03:55:57;;;;;;;2.25;0.80;;;12.10;78.60;;;;;;5018955;28;20053;-77
2022/04/09 03:58:26;;;;;;;4.68;1.10;;;12.10;78.60;;;;;;5011706;28;20139;-77
2022/04/09 04:00:53;;;;;;;2.97;0.80;;;12.10;78.40;;;;;;4980067;28;20042;-75
2022/04/09 04:03:20;;;;;;;2.22;0.90;;;12.10;78.60;;;;;;4989481;28;20546;-76
2022/04/09 04:05:47;;;;;;;3.03;0.70;;;12.10;78.50;;;;;;4993641;28;20205;-75
2022/04/09 04:08:14;;;;;;;3.03;0.98;;;12.10;78.40;;;;;;4993726;28;20042;-75
2022/04/09 04:10:42;;;;;;;4.30;1.10;;;12.10;78.50;;;;;;4999107;28;20073;-76
2022/04/09 04:13:09;;;;;;;3.47;1.00;;;12.10;78.60;;;;;;4995591;28;20152;-75
2022/04/09 04:15:37;;;;;;;3.10;1.00;;;12.10;78.50;;;;;;4996273;28;20050;-74
2022/04/09 04:18:05;;;;;;;2.53;0.80;;;12.10;78.60;;;;;;4976253;28;20066;-75
2022/04/09 04:20:33;;;;;;;2.47;0.90;;;12.10;78.60;;;;;;4978636;28;20149;-75
2022/04/09 04:23:00;;;;;;;2.22;0.90;;;12.10;78.60;;;;;;4995587;28;20053;-77
2022/04/09 04:25:26;;;;;;;2.90;1.00;;;12.10;78.60;;;;;;4975642;28;20046;-76
2022/04/09 04:27:54;;;;;;;2.85;0.80;;;12.10;78.70;;;;;;4976718;28;20454;-76
2022/04/09 04:30:21;;;;;;;4.03;1.00;;;12.10;78.60;;;;;;4975600;28;20061;-75
2022/04/09 04:32:49;;;;;;;3.42;1.08;;;12.10;78.60;;;;;;4995955;28;20073;-74
2022/04/09 04:35:16;;;;;;;2.10;1.00;;;12.10;78.60;;;;;;4999519;28;20049;-76
2022/04/09 04:37:44;;;;;;;3.58;1.00;;;12.10;78.50;;;;;;4980336;28;20053;-75
2022/04/09 04:40:12;;;;;;;3.60;1.10;;;12.10;78.50;;;;;;4999137;28;20050;-74
2022/04/09 04:42:39;;;;;;;3.58;1.10;;;12.10;78.50;;;;;;4995739;28;20121;-75
2022/04/09 04:45:07;;;;;;;4.25;1.02;;;12.10;78.50;;;;;;4995227;28;20045;-74
2022/04/09 04:47:43;;;;;;;2.75;1.02;;;12.10;78.40;;;;;;4995283;28;20401;-76
2022/04/09 04:50:12;;;;;;;2.40;0.80;;;12.10;78.40;;;;;;4995912;28;20050;-76
2022/04/09 04:52:44;;;;;;;3.40;0.98;;;12.10;78.40;;;;;;4997040;28;20037;-74
2022/04/09 04:55:12;;;;;;;2.08;0.80;;;12.10;78.40;;;;;;5000408;28;20038;-74
2022/04/09 04:57:43;;;;;;;4.03;0.90;;;12.10;78.40;;;;;;4994951;28;20081;-74
2022/04/09 05:00:10;;;;;;;2.13;0.80;;;12.10;78.20;;;;;;5003962;28;20101;-75
2022/04/09 05:02:37;;;;;;;3.30;0.98;;;12.00;78.20;;;;;;5014144;28;20078;-75
2022/04/09 05:05:05;;;;;;;3.20;0.90;;;12.10;78.20;;;;;;4997551;28;20100;-75
2022/04/09 05:07:44;;;;;;;2.58;0.90;;;12.10;78.30;;;;;;4997114;28;20556;-76
2022/04/09 05:10:13;;;;;;;3.38;0.70;;;12.10;78.40;;;;;;4998586;28;20045;-74
2022/04/09 05:12:41;;;;;;;2.72;0.95;;;12.00;78.20;;;;;;4989933;28;20050;-77
2022/04/09 05:15:09;;;;;;;2.33;0.75;;;12.00;78.20;;;;;;4977933;28;20412;-74
2022/04/09 05:17:36;;;;;;;2.70;0.88;;;12.00;78.20;;;;;;4996479;28;20069;-75
2022/04/09 05:20:04;;;;;;;4.43;1.40;;;12.10;78.40;;;;;;4994331;28;20049;-75
2022/04/09 05:22:32;;;;;;;2.92;0.80;;;12.00;78.10;;;;;;4991334;28;20069;-75
2022/04/09 05:25:00;;;;;;;3.17;0.90;;;12.00;78.20;;;;;;4997093;28;20435;-75
2022/04/09 05:27:27;;;;;;;3.28;0.90;;;12.10;78.20;;;;;;4978641;28;20770;-76
2022/04/09 05:29:57;;;;;;;2.50;0.82;;;12.00;78.20;;;;;;4992798;28;20085;-75
2022/04/09 05:32:23;;;;;;;2.35;0.88;;;12.00;78.00;;;;;;4993942;28;20104;-74
2022/04/09 05:34:50;;;;;;;3.72;1.00;;;12.00;78.10;;;;;;4985252;28;20149;-75
2022/04/09 05:37:17;;;;;;;2.80;1.00;;;12.00;78.00;;;;;;5001253;28;20042;-74
2022/04/09 05:39:46;;;;;;;3.15;0.85;;;12.00;78.00;;;;;;4991121;28;20529;-76
2022/04/09 05:42:15;;;;;;;2.85;0.90;;;12.00;78.70;;;;;;5002381;28;20046;-76
2022/04/09 05:44:42;;;;;;;2.60;1.00;;;12.00;77.90;;;;;;5001711;28;20108;-75
2022/04/09 05:47:09;;;;;;;1.95;0.73;;;12.00;78.00;;;;;;4998691;28;20103;-74
2022/04/09 05:49:36;;;;;;;5.40;0.90;;;12.00;77.80;;;;;;4981394;28;20065;-74
2022/04/09 05:52:03;;;;;;;3.75;0.88;;;12.00;77.80;;;;;;4995199;28;20128;-75
2022/04/09 05:54:31;;;;;;;3.38;0.95;;;12.00;77.90;;;;;;4992495;28;20120;-75
2022/04/09 05:56:59;;;;;;;2.22;0.82;;;12.00;77.80;;;;;;5002874;28;20100;-75
2022/04/09 05:59:27;;;;;;;5.07;1.20;;;12.00;77.70;;;;;;5014168;28;20045;-73
2022/04/09 06:01:54;;;;;;;3.72;1.10;;;12.00;77.70;;;;;;5021230;28;20176;-71
2022/04/09 06:04:21;;;;;;;4.15;1.00;;;12.00;77.80;;;;;;5021061;28;20050;-73
2022/04/09 06:06:48;;;;;;;3.53;0.93;;;12.00;77.70;;;;;;5025318;28;20057;-75
2022/04/09 06:09:15;;;;;;;3.80;1.10;;;12.00;77.80;;;;;;5018635;28;20095;-73
2022/04/09 06:11:42;;;;;;;2.60;0.75;;;12.00;77.80;;;;;;5019835;28;20395;-73
2022/04/09 06:14:09;;;;;;;4.78;1.20;;;12.00;77.70;;;;;;5016741;28;20049;-76
2022/04/09 06:16:38;;;;;;;3.28;0.90;;;12.00;77.60;;;;;;5019465;28;20131;-72
2022/04/09 06:19:06;;;;;;;3.47;1.10;;;12.00;77.70;;;;;;5017716;28;20045;-74
2022/04/09 06:21:33;;;;;;;3.45;0.93;;;12.00;77.60;;;;;;5023396;28;20041;-72
2022/04/09 06:24:00;;;;;;;4.45;0.80;;;12.00;77.60;;;;;;5020587;28;20041;-75
2022/04/09 06:26:28;;;;;;;7.28;1.02;;;12.00;77.50;;;;;;5032190;28;20820;-73
2022/04/09 06:28:55;;;;;;;2.45;0.75;;;12.00;77.50;;;;;;5024484;28;20041;-74
2022/04/09 06:31:22;;;;;;;2.78;0.93;;;12.00;77.50;;;;;;5025429;28;20057;-73
2022/04/09 06:33:50;;;;;;;2.30;0.90;;;12.00;77.30;;;;;;5020974;28;20046;-72
2022/04/09 06:36:17;;;;;;;3.10;0.77;;;12.00;77.40;;;;;;5018969;28;20053;-75
2022/04/09 06:38:44;;;;;;;4.05;1.08;;;12.00;77.30;;;;;;4999807;28;21032;-73
2022/04/09 06:41:11;;;;;;;3.03;0.90;;;12.00;77.30;;;;;;5028239;28;20038;-74
2022/04/09 06:43:37;;;;;;;2.28;0.80;;;12.00;77.30;;;;;;5025282;28;20042;-73
2022/04/09 06:46:04;;;;;;;5.07;0.98;;;12.00;77.30;;;;;;5021252;28;20041;-74
2022/04/09 06:48:31;;;;;;;4.28;1.05;;;12.00;77.30;;;;;;5022287;28;20099;-71
2022/04/09 06:50:59;;;;;;;2.75;0.70;;;12.10;77.40;;;;;;5022996;28;20069;-72
2022/04/09 06:53:26;;;;;;;3.47;1.08;;;12.00;77.40;;;;;;5022126;28;20088;-72
2022/04/09 06:55:53;;;;;;;4.28;1.02;;;12.00;77.50;;;;;;5022636;28;20068;-72
2022/04/09 06:58:20;;;;;;;4.25;1.20;;;12.00;77.60;;;;;;5000787;28;20050;-72
2022/04/09 07:00:47;;;;;;;3.13;0.90;;;12.00;77.60;;;;;;5002996;28;20046;-73
2022/04/09 07:03:14;;;;;;;2.67;0.85;;;12.10;77.70;;;;;;5003986;28;20045;-72
2022/04/09 07:05:41;;;;;;;2.92;0.85;;;12.10;77.80;;;;;;5002096;28;20050;-72
2022/04/09 07:08:11;;;;;;;4.03;1.05;;;12.10;77.70;;;;;;5002604;28;20046;-74
2022/04/09 07:10:38;;;;;;;4.35;1.15;;;12.20;78.00;;;;;;4997047;28;20037;-72
2022/04/09 07:13:05;;;;;;;2.70;0.73;;;12.10;77.80;;;;;;5001544;28;20064;-72
2022/04/09 07:15:32;;;;;;;3.90;0.80;;;12.10;77.90;;;;;;5004254;28;20048;-72
2022/04/09 07:17:59;;;;;;;3.95;0.90;;;12.10;77.70;;;;;;4998874;28;20108;-73
2022/04/09 07:20:26;;;;;;;3.70;0.80;;;12.10;77.80;;;;;;5000815;28;20041;-73
2022/04/09 07:22:54;;;;;;;3.53;0.93;;;12.20;77.90;;;;;;5003724;28;20042;-72
2022/04/09 07:25:22;;;;;;;2.67;0.80;;;12.10;77.80;;;;;;4998446;28;20049;-72
2022/04/09 07:27:49;;;;;;;4.53;1.10;;;12.20;77.90;;;;;;5003439;28;20054;-74
2022/04/09 07:30:18;;;;;;;3.25;0.90;;;12.20;77.90;;;;;;5006295;28;20169;-73
2022/04/09 07:32:46;;;;;;;4.45;1.10;;;12.20;77.80;;;;;;5004199;28;20053;-73
2022/04/09 07:35:14;;;;;;;3.00;0.93;;;12.20;77.90;;;;;;5008641;28;20034;-72
2022/04/09 07:37:41;;;;;;;3.15;0.75;;;12.20;77.80;;;;;;5019363;28;20104;-72
2022/04/09 07:40:09;;;;;;;3.83;1.20;;;12.20;77.70;;;;;;5018709;28;20030;-71
2022/04/09 07:42:38;;;;;;;2.85;0.80;;;12.20;77.50;;;;;;5019566;28;20066;-72
2022/04/09 07:45:06;;;;;;;2.90;1.05;;;12.20;77.50;;;;;;5005935;28;20156;-74
2022/04/09 07:47:34;;;;;;;3.65;0.73;;;12.20;77.30;;;;;;5004096;28;20054;-74
2022/04/09 07:50:02;;;;;;;4.63;0.98;;;12.20;77.10;;;;;;5001574;28;20060;-71
2022/04/09 07:52:29;;;;;;;4.18;1.00;;;12.20;77.20;;;;;;5000163;28;20046;-73
2022/04/09 07:54:58;;;;;;;2.67;0.80;;;12.20;77.00;;;;;;4999993;28;20041;-72
2022/04/09 07:57:25;;;;;;;2.38;0.80;;;12.20;77.00;;;;;;5000382;28;20106;-72
2022/04/09 07:59:55;;;;;;;3.53;1.00;;;12.20;76.80;;;;;;5001008;28;20081;-73
2022/04/09 08:02:23;;;;;;;2.35;0.68;;;12.10;76.80;;;;;;5001469;28;20049;-73
2022/04/09 08:04:49;;;;;;;2.95;1.00;;;12.10;76.70;;;;;;5003051;28;20048;-73
2022/04/09 08:07:17;;;;;;;3.50;1.05;;;12.20;77.00;;;;;;5000070;28;20084;-72
2022/04/09 08:09:44;;;;;;;3.25;0.90;;;12.10;76.80;;;;;;4984362;28;20073;-72
2022/04/09 08:12:12;;;;;;;4.80;0.80;;;12.10;76.90;;;;;;4994282;28;20532;-73
2022/04/09 08:14:42;;;;;;;2.90;0.88;;;12.20;77.00;;;;;;4985150;28;20046;-71
2022/04/09 08:17:12;;;;;;;2.47;0.90;;;12.10;77.00;;;;;;4999186;28;20046;-72
2022/04/09 08:19:39;;;;;;;2.78;0.80;;;12.10;77.10;;;;;;5002828;28;20038;-72
2022/04/09 08:22:08;;;;;;;2.13;0.65;;;12.20;77.40;;;;;;5002594;28;20054;-72
2022/04/09 08:24:35;;;;;;;3.47;0.88;;;12.10;77.30;;;;;;5000481;28;20473;-73
2022/04/09 08:27:01;;;;;;;2.65;0.60;;;12.10;77.30;;;;;;5001888;28;20050;-74
2022/04/09 08:29:28;;;;;;;2.42;0.60;;;12.20;77.50;;;;;;5001043;28;20057;-71
2022/04/09 08:31:55;;;;;;;3.53;0.90;;;12.20;77.60;;;;;;5005276;28;20045;-73
2022/04/09 08:34:27;;;;;;;3.22;0.82;;;12.20;77.60;;;;;;5002237;28;20057;-71
2022/04/09 08:36:54;;;;;;;3.22;0.70;;;12.20;77.70;;;;;;4996706;28;20038;-72
2022/04/09 08:39:21;;;;;;;2.05;0.80;;;12.20;77.70;;;;;;5003649;28;20046;-72
2022/04/09 08:41:48;;;;;;;2.13;0.65;;;12.20;77.60;;;;;;5008760;28;20038;-72
2022/04/09 08:44:17;;;;;;;1.88;0.60;;;12.30;77.80;;;;;;5002996;28;20049;-73
2022/04/09 08:46:45;;;;;;;3.05;0.80;;;12.30;77.90;;;;;;4999882;28;20050;-72
2022/04/09 08:49:13;;;;;;;2.10;0.60;;;12.30;77.90;;;;;;4995500;28;20042;-73
2022/04/09 08:51:41;;;;;;;2.47;0.70;;;12.30;77.80;;;;;;5004004;28;20052;-72
2022/04/09 08:54:09;;;;;;;2.67;0.82;;;12.30;77.80;;;;;;5005415;28;20128;-71
2022/04/09 08:56:37;;;;;;;2.50;0.70;;;12.30;77.70;;;;;;4986105;28;20128;-73
2022/04/09 08:59:04;;;;;;;2.85;0.70;;;12.30;77.80;;;;;;5004227;28;20084;-73
2022/04/09 09:01:32;;;;;;;2.67;0.80;;;12.30;77.80;;;;;;5012353;28;20112;-72
2022/04/09 09:04:00;;;;;;;6.15;0.90;;;12.30;77.70;;;;;;5015938;28;20043;-73
2022/04/09 09:06:29;;;;;;;4.53;0.90;;;12.40;77.70;;;;;;5018939;28;20073;-72
2022/04/09 09:08:59;;;;;;;2.78;0.90;;;12.30;77.80;;;;;;5017894;28;20049;-72
2022/04/09 09:11:27;;;;;;;3.05;0.90;;;12.30;77.80;;;;;;5013708;28;20096;-72
2022/04/09 09:13:57;;;;;;;2.97;0.95;;;12.30;77.70;;;;;;5001156;28;20041;-72
2022/04/09 09:16:26;;;;;;;2.65;0.77;;;12.40;77.90;;;;;;5010799;28;20103;-73
2022/04/09 09:18:55;;;;;;;5.25;0.90;;;12.30;77.90;;;;;;5026100;28;20042;-72
2022/04/09 09:21:26;;;;;;;3.63;0.85;;;12.40;78.80;;;;;;5022875;28;20055;-73
2022/04/09 09:24:10;;;;;;;2.83;0.95;;;12.40;78.00;;;;;;5016768;28;20080;-73
2022/04/09 09:26:39;;;;;;;2.42;0.70;;;12.40;78.00;;;;;;5018616;28;20049;-74
2022/04/09 09:29:08;;;;;;;9.90;1.15;;;12.40;78.00;;;;;;5011887;28;20080;-76
2022/04/09 09:31:40;;;;;;;2.65;0.95;;;12.40;77.90;;;;;;5030488;28;20050;-73
2022/04/09 09:34:12;;;;;;;4.68;1.20;;;12.40;77.80;;;;;;5043010;28;20055;-74
2022/04/09 09:36:40;;;;;;;3.78;0.90;;;12.40;77.80;;;;;;5035015;28;20068;-73
2022/04/09 09:39:08;;;;;;;5.40;1.00;;;12.50;77.80;;;;;;5021694;28;20041;-72
2022/04/09 09:41:36;;;;;;;3.65;0.95;;;12.40;77.40;;;;;;5020506;28;20096;-73
2022/04/09 09:44:06;;;;;;;3.00;0.98;;;12.40;76.90;;;;;;5020954;28;20041;-74
2022/04/09 09:46:33;;;;;;;2.97;0.80;;;12.40;76.90;;;;;;5018862;28;20073;-72
2022/04/09 09:49:00;;;;;;;7.55;1.20;;;12.50;77.30;;;;;;5031469;28;20052;-72
2022/04/09 09:51:27;;;;;;;5.50;1.08;;;12.40;77.40;;;;;;5005992;28;20077;-72
2022/04/09 09:54:05;;;;;;;8.93;1.30;;;12.40;77.10;;;;;;5018886;28;20130;-74
2022/04/09 09:56:37;;;;;;;5.65;1.05;;;12.40;77.00;;;;;;5023906;28;20053;-73
2022/04/09 09:59:07;;;;;;;5.68;0.90;;;12.50;77.00;;;;;;5008029;28;20045;-72
2022/04/09 10:01:37;;;;;;;4.97;0.80;;;12.40;76.60;;;;;;5032570;28;20046;-73
2022/04/09 10:04:05;;;;;;;5.30;0.80;;;12.40;76.60;;;;;;5008020;28;20132;-74
2022/04/09 10:06:33;;;;;;;5.75;1.00;;;12.50;76.90;;;;;;5023900;28;20049;-74
2022/04/09 10:09:00;;;;;;;5.43;1.25;;;12.50;76.90;;;;;;5025396;28;20045;-73
2022/04/09 10:11:28;;;;;;;4.07;1.20;;;12.50;77.10;;;;;;5023368;28;20049;-73
2022/04/09 10:13:57;;;;;;;4.57;1.40;;;12.50;77.30;;;;;;5025882;28;20049;-74
2022/04/09 10:16:28;;;;;;;5.95;1.48;;;12.50;77.30;;;;;;5006994;28;20099;-73
2022/04/09 10:19:01;;;;;;;7.10;1.40;;;12.50;77.30;;;;;;5027377;28;20102;-72
2022/04/09 10:21:30;;;;;;;6.53;1.38;;;12.50;77.70;;;;;;5011415;28;20050;-72
2022/04/09 10:23:58;;;;;;;5.90;1.50;;;12.50;77.80;;;;;;5033898;28;20072;-74
2022/04/09 10:26:28;;;;;;;5.53;1.63;;;12.50;78.30;;;;;;5031442;28;20040;-73
2022/04/09 10:29:05;;;;;;;4.00;1.65;;;12.50;78.60;;;;;;5009914;28;20045;-72
2022/04/09 10:31:35;;;;;;;7.45;1.50;;;12.60;78.90;;;;;;4989222;28;20135;-74
2022/04/09 10:34:04;;;;;;;5.85;1.40;;;12.60;79.00;;;;;;5021511;28;20049;-73
2022/04/09 10:37:03;;;;;;;6.82;1.70;;;12.60;79.20;;;;;;5025042;28;20045;-73
2022/04/09 10:39:38;;;;;;;5.60;1.30;;;12.60;79.30;;;;;;5004846;28;20063;-72
2022/04/09 10:42:05;;;;;;;5.93;1.30;;;12.60;79.40;;;;;;5025320;28;20087;-73
2022/04/09 10:44:35;;;;;;;3.97;1.20;;;12.70;79.40;;;;;;5023389;28;20070;-72
2022/04/09 10:47:05;;;;;;;5.57;1.45;;;12.70;79.50;;;;;;5022446;28;20038;-75
2022/04/09 10:49:32;;;;;;;5.53;1.30;;;12.70;79.40;;;;;;5025061;28;20041;-76
2022/04/09 10:52:17;;;;;;;4.30;1.33;;;12.70;79.40;;;;;;5026804;28;20045;-73
2022/04/09 10:55:32;;;;;;;3.75;1.20;;;12.70;79.60;;;;;;5017232;28;20077;-72
2022/04/09 10:58:04;;;;;;;3.42;1.25;;;12.70;79.60;;;;;;5023174;28;20044;-72
2022/04/09 11:00:34;;;;;;;5.00;1.20;;;12.70;79.60;;;;;;5020506;28;20045;-73
2022/04/09 11:03:15;;;;;;;3.58;1.10;;;12.70;79.50;;;;;;5024156;28;20042;-76
2022/04/09 11:05:43;;;;;;;2.83;0.90;;;12.70;79.40;;;;;;4993522;28;20416;-72
2022/04/09 11:08:14;;;;;;;3.38;1.10;;;12.80;79.60;;;;;;5020787;28;20513;-73
2022/04/09 11:10:43;;;;;;;5.40;1.20;;;12.80;80.20;;;;;;5027870;28;20057;-71
2022/04/09 11:13:12;;;;;;;3.90;1.02;;;12.90;80.60;;;;;;5031324;28;20308;-72
2022/04/09 11:15:40;;;;;;;3.72;1.10;;;12.90;80.20;;;;;;4997723;28;20049;-73
2022/04/09 11:18:08;;;;;;;4.25;1.10;;;13.00;79.80;;;;;;5037324;28;20053;-72
2022/04/09 11:20:37;;;;;;;3.05;0.88;;;13.00;79.90;;;;;;5027409;28;20042;-73
2022/04/09 11:23:12;;;;;;;6.85;0.88;;;13.00;78.80;;;;;;5028035;28;20192;-73
2022/04/09 11:25:42;;;;;;;2.90;0.88;;;13.00;78.40;;;;;;5023400;28;20037;-75
2022/04/09 11:28:13;;;;;;;3.88;0.80;;;13.10;78.00;;;;;;5031646;28;20045;-72
2022/04/09 11:30:51;;;;;;;2.53;0.73;;;13.00;77.80;;;;;;5034302;28;20088;-71
2022/04/09 11:33:19;;;;;;;3.88;0.80;;;13.10;77.50;;;;;;5038337;28;20037;-75
2022/04/09 11:35:47;;;;;;;3.92;0.85;;;13.10;77.00;;;;;;5007717;28;20169;-73
2022/04/09 11:38:15;;;;;;;2.55;0.70;;;13.10;76.40;;;;;;5029798;28;20037;-74
2022/04/09 11:40:46;;;;;;;3.83;0.90;;;13.10;76.20;;;;;;5015526;28;20042;-73
2022/04/09 11:43:14;;;;;;;3.00;0.60;;;13.20;76.20;;;;;;5008042;28;20042;-76
2022/04/09 11:45:42;;;;;;;2.78;0.70;;;13.20;75.80;;;;;;5012737;28;20045;-72
2022/04/09 11:48:14;;;;;;;3.28;0.70;;;13.20;75.10;;;;;;5006679;28;20055;-73
2022/04/09 11:50:43;;;;;;;1.73;0.50;;;13.20;74.80;;;;;;5019938;28;20046;-72
2022/04/09 11:53:10;;;;;;;2.33;0.50;;;13.30;74.70;;;;;;5027121;28;20369;-73
2022/04/09 11:55:37;;;;;;;1.83;0.60;;;13.20;74.90;;;;;;5017179;28;20074;-72
2022/04/09 11:58:04;;;;;;;2.35;0.70;;;13.30;73.80;;;;;;5025367;28;20053;-72
2022/04/09 12:00:35;;;;;;;2.25;0.50;;;13.30;73.40;;;;;;5022350;28;20049;-72
2022/04/09 12:03:02;;;;;;;2.53;0.70;;;13.30;73.50;;;;;;5023547;28;20045;-75
2022/04/09 12:05:34;;;;;;;2.20;0.60;;;13.30;72.80;;;;;;5020734;28;20095;-71
2022/04/09 12:08:03;;;;;;;1.77;0.50;;;13.30;72.60;;;;;;5019918;28;20048;-72
2022/04/09 12:10:31;;;;;;;2.42;0.70;;;13.30;72.30;;;;;;5022628;28;20157;-72
2022/04/09 12:13:00;;;;;;;1.70;0.60;;;13.30;72.00;;;;;;5023189;28;20046;-73
2022/04/09 12:15:31;;;;;;;1.48;0.45;;;13.30;71.90;;;;;;5022968;28;20065;-73
2022/04/09 12:17:59;;;;;;;3.08;0.70;;;13.40;71.50;;;;;;5020277;28;20044;-71
2022/04/09 12:20:30;;;;;;;1.52;0.50;;;13.40;71.00;;;;;;5008577;28;20099;-72
2022/04/09 12:22:57;;;;;;;2.67;0.60;;;13.40;70.80;;;;;;5019399;28;20037;-71
2022/04/09 12:25:35;;;;;;;1.30;0.50;;;13.40;70.20;;;;;;5016123;28;20053;-73
2022/04/09 12:28:03;;;;;;;2.60;0.50;;;13.40;70.00;;;;;;5021588;28;20126;-75
2022/04/09 12:30:41;;;;;;;2.45;0.55;;;13.40;69.90;;;;;;5023326;28;20044;-73
2022/04/09 12:33:10;;;;;;;1.95;0.40;;;13.40;69.90;;;;;;5003262;28;20052;-74
2022/04/09 12:35:53;;;;;;;2.97;0.50;;;13.50;69.20;;;;;;5029062;28;20040;-72
2022/04/09 12:38:34;;;;;;;1.58;0.57;;;13.50;69.10;;;;;;5023058;28;20053;-73
2022/04/09 12:41:04;;;;;;;1.38;0.30;;;13.50;69.00;;;;;;5021942;28;20049;-71
2022/04/09 12:43:35;;;;;;;1.48;0.50;;;13.50;68.90;;;;;;5023524;28;20056;-72
2022/04/09 12:46:06;;;;;;;1.15;0.40;;;13.50;68.60;;;;;;5028771;28;20064;-76
2022/04/09 12:48:41;;;;;;;3.35;0.52;;;13.50;67.90;;;;;;5010224;28;20056;-73
2022/04/09 12:51:09;;;;;;;1.23;0.40;;;13.50;68.60;;;;;;5028272;28;20136;-75
2022/04/09 12:53:36;;;;;;;1.35;0.40;;;13.50;68.50;;;;;;5015249;28;20045;-72
2022/04/09 12:56:09;;;;;;;1.67;0.50;;;13.50;67.80;;;;;;5024929;28;20081;-74